sensor_id;sensor_type;location;lat;lon;timestamp;P1;durP1;ratioP1;P2;durP2;ratioP2
7233;SDS011;3658;47.992;10.158;2023-04-25T00:02:18;1.37;;;1.27;;
7233;SDS011;3658;47.992;10.158;2023-04-25T00:04:45;1.40;;;1.30;;
7233;SDS011;3658;47.992;10.158;2023-04-25T00:07:14;1.30;;;1.20;;
7233;SDS011;3658;47.992;10.158;2023-04-25T00:09:41;1.30;;;1.20;;
7233;SDS011;3658;47.992;10.158;2023-04-25T00:12:08;1.30;;;1.20;;
7233;SDS011;3658;47.992;10.158;2023-04-25T00:14:35;1.53;;;1.30;;
7233;SDS011;3658;47.992;10.158;2023-04-25T00:17:03;1.67;;;1.33;;
7233;SDS011;3658;47.992;10.158;2023-04-25T00:19:32;1.57;;;1.40;;
7233;SDS011;3658;47.992;10.158;2023-04-25T00:21:59;1.60;;;1.50;;
7233;SDS011;3658;47.992;10.158;2023-04-25T00:24:26;1.30;;;1.20;;
7233;SDS011;3658;47.992;10.158;2023-04-25T00:26:53;1.30;;;1.20;;
7233;SDS011;3658;47.992;10.158;2023-04-25T00:29:20;2.33;;;1.53;;
7233;SDS011;3658;47.992;10.158;2023-04-25T00:31:47;1.60;;;1.30;;
7233;SDS011;3658;47.992;10.158;2023-04-25T00:34:14;1.30;;;1.20;;
7233;SDS011;3658;47.992;10.158;2023-04-25T00:36:42;1.40;;;1.30;;
7233;SDS011;3658;47.992;10.158;2023-04-25T00:39:09;1.73;;;1.30;;
7233;SDS011;3658;47.992;10.158;2023-04-25T00:41:37;1.03;;;1.03;;
7233;SDS011;3658;47.992;10.158;2023-04-25T00:44:05;1.83;;;1.40;;
7233;SDS011;3658;47.992;10.158;2023-04-25T00:46:36;1.57;;;1.47;;
7233;SDS011;3658;47.992;10.158;2023-04-25T00:49:04;1.30;;;1.20;;
7233;SDS011;3658;47.992;10.158;2023-04-25T00:51:31;1.50;;;1.40;;
7233;SDS011;3658;47.992;10.158;2023-04-25T00:54:01;1.33;;;1.23;;
7233;SDS011;3658;47.992;10.158;2023-04-25T00:56:28;1.23;;;1.13;;
7233;SDS011;3658;47.992;10.158;2023-04-25T00:58:55;1.27;;;1.17;;
7233;SDS011;3658;47.992;10.158;2023-04-25T01:01:22;1.30;;;1.20;;
7233;SDS011;3658;47.992;10.158;2023-04-25T01:03:50;1.43;;;1.20;;
7233;SDS011;3658;47.992;10.158;2023-04-25T01:06:18;1.53;;;1.20;;
7233;SDS011;3658;47.992;10.158;2023-04-25T01:08:47;1.50;;;1.40;;
7233;SDS011;3658;47.992;10.158;2023-04-25T01:11:15;1.60;;;1.23;;
7233;SDS011;3658;47.992;10.158;2023-04-25T01:13:43;2.00;;;1.40;;
7233;SDS011;3658;47.992;10.158;2023-04-25T01:16:10;1.70;;;1.40;;
7233;SDS011;3658;47.992;10.158;2023-04-25T01:18:37;1.50;;;1.37;;
7233;SDS011;3658;47.992;10.158;2023-04-25T01:21:08;1.10;;;1.10;;
7233;SDS011;3658;47.992;10.158;2023-04-25T01:23:35;1.40;;;1.30;;
7233;SDS011;3658;47.992;10.158;2023-04-25T01:26:03;1.30;;;1.20;;
7233;SDS011;3658;47.992;10.158;2023-04-25T01:28:31;1.70;;;1.40;;
7233;SDS011;3658;47.992;10.158;2023-04-25T01:31:00;1.40;;;1.30;;
7233;SDS011;3658;47.992;10.158;2023-04-25T01:33:27;1.53;;;1.30;;
7233;SDS011;3658;47.992;10.158;2023-04-25T01:35:55;1.40;;;1.30;;
7233;SDS011;3658;47.992;10.158;2023-04-25T01:38:23;2.07;;;1.37;;
7233;SDS011;3658;47.992;10.158;2023-04-25T01:40:51;1.30;;;1.20;;
7233;SDS011;3658;47.992;10.158;2023-04-25T01:43:18;1.20;;;1.10;;
7233;SDS011;3658;47.992;10.158;2023-04-25T01:45:45;1.30;;;1.20;;
7233;SDS011;3658;47.992;10.158;2023-04-25T01:48:12;2.23;;;1.20;;
7233;SDS011;3658;47.992;10.158;2023-04-25T01:50:40;1.73;;;1.30;;
7233;SDS011;3658;47.992;10.158;2023-04-25T01:53:07;1.33;;;1.20;;
7233;SDS011;3658;47.992;10.158;2023-04-25T01:55:37;1.47;;;1.37;;
7233;SDS011;3658;47.992;10.158;2023-04-25T01:58:04;1.53;;;1.30;;
7233;SDS011;3658;47.992;10.158;2023-04-25T02:00:34;1.83;;;1.30;;
7233;SDS011;3658;47.992;10.158;2023-04-25T02:03:03;1.77;;;1.60;;
7233;SDS011;3658;47.992;10.158;2023-04-25T02:05:33;1.33;;;1.13;;
7233;SDS011;3658;47.992;10.158;2023-04-25T02:08:01;1.40;;;1.30;;
7233;SDS011;3658;47.992;10.158;2023-04-25T02:10:28;1.33;;;1.23;;
7233;SDS011;3658;47.992;10.158;2023-04-25T02:12:57;1.10;;;1.00;;
7233;SDS011;3658;47.992;10.158;2023-04-25T02:15:25;1.40;;;1.30;;
7233;SDS011;3658;47.992;10.158;2023-04-25T02:17:52;1.40;;;1.30;;
7233;SDS011;3658;47.992;10.158;2023-04-25T02:20:19;1.13;;;1.10;;
7233;SDS011;3658;47.992;10.158;2023-04-25T02:22:47;1.30;;;1.20;;
7233;SDS011;3658;47.992;10.158;2023-04-25T02:25:14;1.23;;;1.13;;
7233;SDS011;3658;47.992;10.158;2023-04-25T02:27:42;1.30;;;1.20;;
7233;SDS011;3658;47.992;10.158;2023-04-25T02:30:10;1.03;;;1.03;;
7233;SDS011;3658;47.992;10.158;2023-04-25T02:32:38;1.50;;;1.40;;
7233;SDS011;3658;47.992;10.158;2023-04-25T02:35:05;1.30;;;1.20;;
7233;SDS011;3658;47.992;10.158;2023-04-25T02:37:33;1.40;;;1.30;;
7233;SDS011;3658;47.992;10.158;2023-04-25T02:40:00;2.00;;;1.40;;
7233;SDS011;3658;47.992;10.158;2023-04-25T02:42:29;1.53;;;1.40;;
7233;SDS011;3658;47.992;10.158;2023-04-25T02:44:56;1.47;;;1.37;;
7233;SDS011;3658;47.992;10.158;2023-04-25T02:47:24;1.30;;;1.20;;
7233;SDS011;3658;47.992;10.158;2023-04-25T02:49:51;1.50;;;1.40;;
7233;SDS011;3658;47.992;10.158;2023-04-25T02:52:18;2.27;;;1.50;;
7233;SDS011;3658;47.992;10.158;2023-04-25T02:54:46;1.40;;;1.30;;
7233;SDS011;3658;47.992;10.158;2023-04-25T02:57:13;1.60;;;1.40;;
7233;SDS011;3658;47.992;10.158;2023-04-25T02:59:40;1.33;;;1.23;;
7233;SDS011;3658;47.992;10.158;2023-04-25T03:02:07;1.47;;;1.30;;
7233;SDS011;3658;47.992;10.158;2023-04-25T03:04:35;1.20;;;1.10;;
7233;SDS011;3658;47.992;10.158;2023-04-25T03:07:02;2.33;;;1.30;;
7233;SDS011;3658;47.992;10.158;2023-04-25T03:09:30;1.40;;;1.30;;
7233;SDS011;3658;47.992;10.158;2023-04-25T03:11:57;1.27;;;1.17;;
7233;SDS011;3658;47.992;10.158;2023-04-25T03:14:24;1.40;;;1.30;;
7233;SDS011;3658;47.992;10.158;2023-04-25T03:16:51;1.33;;;1.23;;
7233;SDS011;3658;47.992;10.158;2023-04-25T03:19:18;2.20;;;1.30;;
7233;SDS011;3658;47.992;10.158;2023-04-25T03:21:46;2.40;;;1.40;;
7233;SDS011;3658;47.992;10.158;2023-04-25T03:24:14;1.97;;;1.20;;
7233;SDS011;3658;47.992;10.158;2023-04-25T03:26:41;2.07;;;1.20;;
7233;SDS011;3658;47.992;10.158;2023-04-25T03:29:08;1.83;;;1.67;;
7233;SDS011;3658;47.992;10.158;2023-04-25T03:31:35;1.30;;;1.20;;
7233;SDS011;3658;47.992;10.158;2023-04-25T03:34:02;1.40;;;1.30;;
7233;SDS011;3658;47.992;10.158;2023-04-25T03:36:29;1.40;;;1.23;;
7233;SDS011;3658;47.992;10.158;2023-04-25T03:38:57;1.40;;;1.23;;
7233;SDS011;3658;47.992;10.158;2023-04-25T03:41:24;2.53;;;1.43;;
7233;SDS011;3658;47.992;10.158;2023-04-25T03:43:51;1.30;;;1.20;;
7233;SDS011;3658;47.992;10.158;2023-04-25T03:46:18;2.40;;;1.23;;
7233;SDS011;3658;47.992;10.158;2023-04-25T03:48:45;1.57;;;1.40;;
7233;SDS011;3658;47.992;10.158;2023-04-25T03:51:11;1.37;;;1.20;;
7233;SDS011;3658;47.992;10.158;2023-04-25T03:53:38;1.47;;;1.37;;
7233;SDS011;3658;47.992;10.158;2023-04-25T03:56:07;1.40;;;1.30;;
7233;SDS011;3658;47.992;10.158;2023-04-25T03:58:34;1.40;;;1.30;;
7233;SDS011;3658;47.992;10.158;2023-04-25T04:01:01;1.77;;;1.20;;
7233;SDS011;3658;47.992;10.158;2023-04-25T04:03:32;1.53;;;1.43;;
7233;SDS011;3658;47.992;10.158;2023-04-25T04:05:59;1.83;;;1.30;;
7233;SDS011;3658;47.992;10.158;2023-04-25T04:08:26;1.43;;;1.30;;
7233;SDS011;3658;47.992;10.158;2023-04-25T04:10:53;1.67;;;1.40;;
7233;SDS011;3658;47.992;10.158;2023-04-25T04:13:21;1.43;;;1.23;;
7233;SDS011;3658;47.992;10.158;2023-04-25T04:15:48;1.30;;;1.20;;
7233;SDS011;3658;47.992;10.158;2023-04-25T04:18:15;1.50;;;1.40;;
7233;SDS011;3658;47.992;10.158;2023-04-25T04:20:42;1.20;;;1.10;;
7233;SDS011;3658;47.992;10.158;2023-04-25T04:23:09;1.20;;;1.10;;
7233;SDS011;3658;47.992;10.158;2023-04-25T04:25:36;1.47;;;1.20;;
7233;SDS011;3658;47.992;10.158;2023-04-25T04:28:04;1.37;;;1.20;;
7233;SDS011;3658;47.992;10.158;2023-04-25T04:30:33;1.47;;;1.33;;
7233;SDS011;3658;47.992;10.158;2023-04-25T04:33:02;1.40;;;1.30;;
7233;SDS011;3658;47.992;10.158;2023-04-25T04:35:29;1.40;;;1.30;;
7233;SDS011;3658;47.992;10.158;2023-04-25T04:37:56;1.50;;;1.40;;
7233;SDS011;3658;47.992;10.158;2023-04-25T04:40:23;1.30;;;1.20;;
7233;SDS011;3658;47.992;10.158;2023-04-25T04:42:50;1.40;;;1.30;;
7233;SDS011;3658;47.992;10.158;2023-04-25T04:45:18;1.37;;;1.27;;
7233;SDS011;3658;47.992;10.158;2023-04-25T04:47:47;1.40;;;1.30;;
7233;SDS011;3658;47.992;10.158;2023-04-25T04:50:14;2.27;;;1.30;;
7233;SDS011;3658;47.992;10.158;2023-04-25T04:52:41;1.83;;;1.40;;
7233;SDS011;3658;47.992;10.158;2023-04-25T04:55:08;1.43;;;1.20;;
7233;SDS011;3658;47.992;10.158;2023-04-25T04:57:35;1.40;;;1.30;;
7233;SDS011;3658;47.992;10.158;2023-04-25T05:00:04;1.40;;;1.30;;
7233;SDS011;3658;47.992;10.158;2023-04-25T05:02:36;1.30;;;1.20;;
7233;SDS011;3658;47.992;10.158;2023-04-25T05:05:05;1.37;;;1.27;;
7233;SDS011;3658;47.992;10.158;2023-04-25T05:07:33;1.77;;;1.40;;
7233;SDS011;3658;47.992;10.158;2023-04-25T05:10:00;1.30;;;1.20;;
7233;SDS011;3658;47.992;10.158;2023-04-25T05:12:26;1.30;;;1.20;;
7233;SDS011;3658;47.992;10.158;2023-04-25T05:14:53;1.70;;;1.20;;
7233;SDS011;3658;47.992;10.158;2023-04-25T05:17:20;1.67;;;1.30;;
7233;SDS011;3658;47.992;10.158;2023-04-25T05:19:47;1.53;;;1.43;;
7233;SDS011;3658;47.992;10.158;2023-04-25T05:22:16;1.20;;;1.10;;
7233;SDS011;3658;47.992;10.158;2023-04-25T05:24:43;1.90;;;1.40;;
7233;SDS011;3658;47.992;10.158;2023-04-25T05:27:10;1.53;;;1.30;;
7233;SDS011;3658;47.992;10.158;2023-04-25T05:29:37;1.60;;;1.10;;
7233;SDS011;3658;47.992;10.158;2023-04-25T05:32:04;2.50;;;1.57;;
7233;SDS011;3658;47.992;10.158;2023-04-25T05:34:32;1.50;;;1.40;;
7233;SDS011;3658;47.992;10.158;2023-04-25T05:36:59;1.37;;;1.20;;
7233;SDS011;3658;47.992;10.158;2023-04-25T05:39:28;1.40;;;1.30;;
7233;SDS011;3658;47.992;10.158;2023-04-25T05:41:55;1.30;;;1.20;;
7233;SDS011;3658;47.992;10.158;2023-04-25T05:44:22;2.30;;;1.50;;
7233;SDS011;3658;47.992;10.158;2023-04-25T05:46:49;1.40;;;1.30;;
7233;SDS011;3658;47.992;10.158;2023-04-25T05:49:16;1.37;;;1.27;;
7233;SDS011;3658;47.992;10.158;2023-04-25T05:51:43;2.53;;;1.50;;
7233;SDS011;3658;47.992;10.158;2023-04-25T05:54:10;1.80;;;1.30;;
7233;SDS011;3658;47.992;10.158;2023-04-25T05:56:38;5.67;;;1.60;;
7233;SDS011;3658;47.992;10.158;2023-04-25T05:59:05;3.70;;;1.30;;
7233;SDS011;3658;47.992;10.158;2023-04-25T06:01:32;2.87;;;1.20;;
7233;SDS011;3658;47.992;10.158;2023-04-25T06:03:59;2.40;;;1.40;;
7233;SDS011;3658;47.992;10.158;2023-04-25T06:06:26;1.50;;;1.23;;
7233;SDS011;3658;47.992;10.158;2023-04-25T06:08:53;7.73;;;1.70;;
7233;SDS011;3658;47.992;10.158;2023-04-25T06:11:20;4.37;;;1.30;;
7233;SDS011;3658;47.992;10.158;2023-04-25T06:13:49;2.60;;;1.30;;
7233;SDS011;3658;47.992;10.158;2023-04-25T06:16:16;1.50;;;1.37;;
7233;SDS011;3658;47.992;10.158;2023-04-25T06:18:43;6.60;;;1.73;;
7233;SDS011;3658;47.992;10.158;2023-04-25T06:21:10;1.90;;;1.30;;
7233;SDS011;3658;47.992;10.158;2023-04-25T06:23:36;2.07;;;1.40;;
7233;SDS011;3658;47.992;10.158;2023-04-25T06:26:03;1.87;;;1.30;;
7233;SDS011;3658;47.992;10.158;2023-04-25T06:28:30;1.80;;;1.30;;
7233;SDS011;3658;47.992;10.158;2023-04-25T06:30:59;1.33;;;1.23;;
7233;SDS011;3658;47.992;10.158;2023-04-25T06:33:26;1.90;;;1.30;;
7233;SDS011;3658;47.992;10.158;2023-04-25T06:35:53;6.43;;;1.50;;
7233;SDS011;3658;47.992;10.158;2023-04-25T06:38:19;3.87;;;1.40;;
7233;SDS011;3658;47.992;10.158;2023-04-25T06:40:46;5.23;;;1.63;;
7233;SDS011;3658;47.992;10.158;2023-04-25T06:43:13;5.53;;;1.53;;
7233;SDS011;3658;47.992;10.158;2023-04-25T06:45:40;3.20;;;1.70;;
7233;SDS011;3658;47.992;10.158;2023-04-25T06:48:09;6.97;;;1.53;;
7233;SDS011;3658;47.992;10.158;2023-04-25T06:50:36;6.43;;;1.60;;
7233;SDS011;3658;47.992;10.158;2023-04-25T06:53:03;4.17;;;1.33;;
7233;SDS011;3658;47.992;10.158;2023-04-25T06:55:30;4.30;;;1.40;;
7233;SDS011;3658;47.992;10.158;2023-04-25T06:57:57;7.93;;;1.60;;
7233;SDS011;3658;47.992;10.158;2023-04-25T07:00:25;5.63;;;1.47;;
7233;SDS011;3658;47.992;10.158;2023-04-25T07:02:53;2.77;;;1.57;;
7233;SDS011;3658;47.992;10.158;2023-04-25T07:05:21;2.40;;;1.43;;
7233;SDS011;3658;47.992;10.158;2023-04-25T07:07:48;2.07;;;1.40;;
7233;SDS011;3658;47.992;10.158;2023-04-25T07:10:15;3.63;;;1.40;;
7233;SDS011;3658;47.992;10.158;2023-04-25T07:12:42;8.40;;;1.40;;
7233;SDS011;3658;47.992;10.158;2023-04-25T07:15:09;3.10;;;1.40;;
7233;SDS011;3658;47.992;10.158;2023-04-25T07:17:36;2.37;;;1.27;;
7233;SDS011;3658;47.992;10.158;2023-04-25T07:20:04;1.43;;;1.10;;
7233;SDS011;3658;47.992;10.158;2023-04-25T07:22:34;2.10;;;1.40;;
7233;SDS011;3658;47.992;10.158;2023-04-25T07:25:01;2.00;;;1.40;;
7233;SDS011;3658;47.992;10.158;2023-04-25T07:27:29;2.90;;;1.30;;
7233;SDS011;3658;47.992;10.158;2023-04-25T07:29:56;2.17;;;1.50;;
7233;SDS011;3658;47.992;10.158;2023-04-25T07:32:24;2.77;;;1.60;;
7233;SDS011;3658;47.992;10.158;2023-04-25T07:34:52;2.50;;;1.30;;
7233;SDS011;3658;47.992;10.158;2023-04-25T07:37:19;1.30;;;1.10;;
7233;SDS011;3658;47.992;10.158;2023-04-25T07:39:47;1.67;;;1.20;;
7233;SDS011;3658;47.992;10.158;2023-04-25T07:42:14;2.80;;;1.37;;
7233;SDS011;3658;47.992;10.158;2023-04-25T07:44:41;1.73;;;1.30;;
7233;SDS011;3658;47.992;10.158;2023-04-25T07:47:08;1.60;;;1.10;;
7233;SDS011;3658;47.992;10.158;2023-04-25T07:49:36;1.30;;;1.20;;
7233;SDS011;3658;47.992;10.158;2023-04-25T07:52:04;3.50;;;1.47;;
7233;SDS011;3658;47.992;10.158;2023-04-25T07:54:31;1.93;;;1.40;;
7233;SDS011;3658;47.992;10.158;2023-04-25T07:57:00;3.40;;;1.40;;
7233;SDS011;3658;47.992;10.158;2023-04-25T07:59:27;1.77;;;1.53;;
7233;SDS011;3658;47.992;10.158;2023-04-25T08:01:54;5.77;;;1.17;;
7233;SDS011;3658;47.992;10.158;2023-04-25T08:04:22;3.00;;;1.20;;
7233;SDS011;3658;47.992;10.158;2023-04-25T08:06:50;3.63;;;1.37;;
7233;SDS011;3658;47.992;10.158;2023-04-25T08:09:17;1.60;;;1.23;;
7233;SDS011;3658;47.992;10.158;2023-04-25T08:11:44;2.40;;;1.10;;
7233;SDS011;3658;47.992;10.158;2023-04-25T08:14:13;1.93;;;1.20;;
7233;SDS011;3658;47.992;10.158;2023-04-25T08:16:40;6.23;;;1.43;;
7233;SDS011;3658;47.992;10.158;2023-04-25T08:19:07;5.13;;;1.20;;
7233;SDS011;3658;47.992;10.158;2023-04-25T08:21:34;1.70;;;1.13;;
7233;SDS011;3658;47.992;10.158;2023-04-25T08:24:01;2.07;;;1.30;;
7233;SDS011;3658;47.992;10.158;2023-04-25T08:26:28;4.23;;;1.40;;
7233;SDS011;3658;47.992;10.158;2023-04-25T08:28:55;1.77;;;1.20;;
7233;SDS011;3658;47.992;10.158;2023-04-25T08:31:23;4.83;;;1.27;;
7233;SDS011;3658;47.992;10.158;2023-04-25T08:33:51;1.20;;;1.10;;
7233;SDS011;3658;47.992;10.158;2023-04-25T08:36:18;1.20;;;1.10;;
7233;SDS011;3658;47.992;10.158;2023-04-25T08:38:45;1.50;;;1.30;;
7233;SDS011;3658;47.992;10.158;2023-04-25T08:41:12;1.73;;;1.20;;
7233;SDS011;3658;47.992;10.158;2023-04-25T08:43:41;2.83;;;1.20;;
7233;SDS011;3658;47.992;10.158;2023-04-25T08:46:10;18.43;;;1.70;;
7233;SDS011;3658;47.992;10.158;2023-04-25T08:48:40;1.77;;;1.17;;
7233;SDS011;3658;47.992;10.158;2023-04-25T08:51:08;2.47;;;1.23;;
7233;SDS011;3658;47.992;10.158;2023-04-25T08:53:40;1.30;;;1.20;;
7233;SDS011;3658;47.992;10.158;2023-04-25T08:56:09;1.90;;;1.50;;
7233;SDS011;3658;47.992;10.158;2023-04-25T08:58:42;1.43;;;1.10;;
7233;SDS011;3658;47.992;10.158;2023-04-25T09:01:11;2.93;;;1.20;;
7233;SDS011;3658;47.992;10.158;2023-04-25T09:03:38;3.70;;;1.20;;
7233;SDS011;3658;47.992;10.158;2023-04-25T09:06:06;1.63;;;1.20;;
7233;SDS011;3658;47.992;10.158;2023-04-25T09:08:35;2.30;;;1.20;;
7233;SDS011;3658;47.992;10.158;2023-04-25T09:11:03;1.90;;;1.37;;
7233;SDS011;3658;47.992;10.158;2023-04-25T09:13:29;2.33;;;1.03;;
7233;SDS011;3658;47.992;10.158;2023-04-25T09:15:57;1.83;;;1.13;;
7233;SDS011;3658;47.992;10.158;2023-04-25T09:18:25;2.27;;;1.00;;
7233;SDS011;3658;47.992;10.158;2023-04-25T09:20:55;1.40;;;1.30;;
7233;SDS011;3658;47.992;10.158;2023-04-25T09:23:23;1.40;;;1.30;;
7233;SDS011;3658;47.992;10.158;2023-04-25T09:25:50;2.17;;;1.20;;
7233;SDS011;3658;47.992;10.158;2023-04-25T09:28:22;2.50;;;0.90;;
7233;SDS011;3658;47.992;10.158;2023-04-25T09:30:54;2.87;;;1.10;;
7233;SDS011;3658;47.992;10.158;2023-04-25T09:33:26;2.53;;;1.20;;
7233;SDS011;3658;47.992;10.158;2023-04-25T09:36:02;1.50;;;1.20;;
7233;SDS011;3658;47.992;10.158;2023-04-25T09:38:31;1.83;;;1.20;;
7233;SDS011;3658;47.992;10.158;2023-04-25T09:40:58;1.73;;;1.40;;
7233;SDS011;3658;47.992;10.158;2023-04-25T09:43:26;2.03;;;1.47;;
7233;SDS011;3658;47.992;10.158;2023-04-25T09:45:54;1.70;;;1.20;;
7233;SDS011;3658;47.992;10.158;2023-04-25T09:48:24;1.73;;;1.40;;
7233;SDS011;3658;47.992;10.158;2023-04-25T09:51:07;10.47;;;1.53;;
7233;SDS011;3658;47.992;10.158;2023-04-25T09:53:36;1.53;;;1.00;;
7233;SDS011;3658;47.992;10.158;2023-04-25T09:56:05;1.97;;;1.20;;
7233;SDS011;3658;47.992;10.158;2023-04-25T09:58:34;6.47;;;1.77;;
7233;SDS011;3658;47.992;10.158;2023-04-25T10:01:02;7.77;;;2.00;;
7233;SDS011;3658;47.992;10.158;2023-04-25T10:03:31;11.77;;;2.83;;
7233;SDS011;3658;47.992;10.158;2023-04-25T10:06:00;10.10;;;2.00;;
7233;SDS011;3658;47.992;10.158;2023-04-25T10:08:31;8.43;;;2.43;;
7233;SDS011;3658;47.992;10.158;2023-04-25T10:11:00;7.53;;;2.00;;
7233;SDS011;3658;47.992;10.158;2023-04-25T10:13:29;7.17;;;2.40;;
7233;SDS011;3658;47.992;10.158;2023-04-25T10:15:57;4.67;;;1.90;;
7233;SDS011;3658;47.992;10.158;2023-04-25T10:18:25;4.53;;;1.60;;
7233;SDS011;3658;47.992;10.158;2023-04-25T10:20:53;6.07;;;1.80;;
7233;SDS011;3658;47.992;10.158;2023-04-25T10:23:22;4.13;;;1.77;;
7233;SDS011;3658;47.992;10.158;2023-04-25T10:25:51;4.13;;;1.60;;
7233;SDS011;3658;47.992;10.158;2023-04-25T10:28:19;4.80;;;1.90;;
7233;SDS011;3658;47.992;10.158;2023-04-25T10:33:34;3.03;;;1.70;;
7233;SDS011;3658;47.992;10.158;2023-04-25T10:36:09;4.53;;;1.87;;
7233;SDS011;3658;47.992;10.158;2023-04-25T10:38:37;8.93;;;1.80;;
7233;SDS011;3658;47.992;10.158;2023-04-25T10:41:06;7.67;;;2.10;;
7233;SDS011;3658;47.992;10.158;2023-04-25T10:43:35;10.97;;;2.30;;
7233;SDS011;3658;47.992;10.158;2023-04-25T10:46:12;9.53;;;2.30;;
7233;SDS011;3658;47.992;10.158;2023-04-25T10:48:46;7.70;;;2.27;;
7233;SDS011;3658;47.992;10.158;2023-04-25T10:51:21;2.70;;;1.73;;
7233;SDS011;3658;47.992;10.158;2023-04-25T10:53:58;4.07;;;1.60;;
7233;SDS011;3658;47.992;10.158;2023-04-25T10:56:28;5.77;;;1.70;;
7233;SDS011;3658;47.992;10.158;2023-04-25T10:59:03;5.90;;;1.80;;
7233;SDS011;3658;47.992;10.158;2023-04-25T11:01:36;4.40;;;1.63;;
7233;SDS011;3658;47.992;10.158;2023-04-25T11:04:04;3.53;;;1.40;;
7233;SDS011;3658;47.992;10.158;2023-04-25T11:06:34;2.00;;;1.30;;
7233;SDS011;3658;47.992;10.158;2023-04-25T11:09:11;2.73;;;1.57;;
7233;SDS011;3658;47.992;10.158;2023-04-25T11:11:40;3.10;;;1.37;;
7233;SDS011;3658;47.992;10.158;2023-04-25T11:14:07;3.10;;;1.40;;
7233;SDS011;3658;47.992;10.158;2023-04-25T11:16:34;3.90;;;1.83;;
7233;SDS011;3658;47.992;10.158;2023-04-25T11:19:03;3.20;;;2.10;;
7233;SDS011;3658;47.992;10.158;2023-04-25T11:21:30;2.83;;;1.43;;
7233;SDS011;3658;47.992;10.158;2023-04-25T11:23:58;1.77;;;1.10;;
7233;SDS011;3658;47.992;10.158;2023-04-25T11:26:26;2.50;;;1.40;;
7233;SDS011;3658;47.992;10.158;2023-04-25T11:28:58;2.80;;;1.20;;
7233;SDS011;3658;47.992;10.158;2023-04-25T11:31:25;2.03;;;1.40;;
7233;SDS011;3658;47.992;10.158;2023-04-25T11:33:53;1.80;;;1.23;;
7233;SDS011;3658;47.992;10.158;2023-04-25T11:36:22;2.50;;;1.20;;
7233;SDS011;3658;47.992;10.158;2023-04-25T11:38:49;4.07;;;1.30;;
7233;SDS011;3658;47.992;10.158;2023-04-25T11:41:17;3.00;;;1.43;;
7233;SDS011;3658;47.992;10.158;2023-04-25T11:43:44;1.77;;;1.20;;
7233;SDS011;3658;47.992;10.158;2023-04-25T11:46:12;2.00;;;1.17;;
7233;SDS011;3658;47.992;10.158;2023-04-25T11:48:39;3.07;;;1.23;;
7233;SDS011;3658;47.992;10.158;2023-04-25T11:51:07;2.30;;;1.30;;
7233;SDS011;3658;47.992;10.158;2023-04-25T11:53:34;1.50;;;1.00;;
7233;SDS011;3658;47.992;10.158;2023-04-25T11:56:01;3.87;;;1.30;;
7233;SDS011;3658;47.992;10.158;2023-04-25T12:01:31;3.20;;;1.13;;
7233;SDS011;3658;47.992;10.158;2023-04-25T12:04:09;2.33;;;1.00;;
7233;SDS011;3658;47.992;10.158;2023-04-25T12:06:37;1.27;;;1.13;;
7233;SDS011;3658;47.992;10.158;2023-04-25T12:09:07;1.47;;;1.00;;
7233;SDS011;3658;47.992;10.158;2023-04-25T12:11:40;2.53;;;1.20;;
7233;SDS011;3658;47.992;10.158;2023-04-25T12:14:07;1.13;;;1.00;;
7233;SDS011;3658;47.992;10.158;2023-04-25T12:16:43;1.67;;;1.03;;
7233;SDS011;3658;47.992;10.158;2023-04-25T12:19:13;1.60;;;0.97;;
7233;SDS011;3658;47.992;10.158;2023-04-25T12:21:40;1.10;;;1.00;;
7233;SDS011;3658;47.992;10.158;2023-04-25T12:24:11;1.93;;;1.50;;
7233;SDS011;3658;47.992;10.158;2023-04-25T12:26:47;4.03;;;1.90;;
7233;SDS011;3658;47.992;10.158;2023-04-25T12:29:15;7.20;;;2.30;;
7233;SDS011;3658;47.992;10.158;2023-04-25T12:31:45;2.83;;;2.10;;
7233;SDS011;3658;47.992;10.158;2023-04-25T12:34:12;4.03;;;2.07;;
7233;SDS011;3658;47.992;10.158;2023-04-25T12:36:39;2.20;;;2.00;;
7233;SDS011;3658;47.992;10.158;2023-04-25T12:39:06;2.80;;;2.03;;
7233;SDS011;3658;47.992;10.158;2023-04-25T12:41:34;1.97;;;1.77;;
7233;SDS011;3658;47.992;10.158;2023-04-25T12:44:01;2.53;;;2.00;;
7233;SDS011;3658;47.992;10.158;2023-04-25T12:46:28;2.00;;;1.80;;
7233;SDS011;3658;47.992;10.158;2023-04-25T12:48:56;5.03;;;2.00;;
7233;SDS011;3658;47.992;10.158;2023-04-25T12:51:23;3.17;;;1.90;;
7233;SDS011;3658;47.992;10.158;2023-04-25T12:53:52;3.70;;;1.70;;
7233;SDS011;3658;47.992;10.158;2023-04-25T12:56:19;2.20;;;1.80;;
7233;SDS011;3658;47.992;10.158;2023-04-25T12:58:46;6.17;;;1.50;;
7233;SDS011;3658;47.992;10.158;2023-04-25T13:01:14;2.00;;;1.63;;
7233;SDS011;3658;47.992;10.158;2023-04-25T13:03:41;4.57;;;1.40;;
7233;SDS011;3658;47.992;10.158;2023-04-25T13:06:09;2.53;;;1.60;;
7233;SDS011;3658;47.992;10.158;2023-04-25T13:08:37;3.23;;;1.60;;
7233;SDS011;3658;47.992;10.158;2023-04-25T13:11:06;2.47;;;1.57;;
7233;SDS011;3658;47.992;10.158;2023-04-25T13:13:33;4.23;;;1.43;;
7233;SDS011;3658;47.992;10.158;2023-04-25T13:16:01;2.03;;;1.30;;
7233;SDS011;3658;47.992;10.158;2023-04-25T13:18:28;1.47;;;1.37;;
7233;SDS011;3658;47.992;10.158;2023-04-25T13:20:56;1.97;;;1.40;;
7233;SDS011;3658;47.992;10.158;2023-04-25T13:23:26;1.70;;;1.27;;
7233;SDS011;3658;47.992;10.158;2023-04-25T13:25:54;3.00;;;1.67;;
7233;SDS011;3658;47.992;10.158;2023-04-25T13:28:22;4.60;;;1.43;;
7233;SDS011;3658;47.992;10.158;2023-04-25T13:30:50;1.80;;;1.30;;
7233;SDS011;3658;47.992;10.158;2023-04-25T13:33:17;1.17;;;1.00;;
7233;SDS011;3658;47.992;10.158;2023-04-25T13:35:45;1.13;;;1.03;;
7233;SDS011;3658;47.992;10.158;2023-04-25T13:38:18;2.27;;;1.60;;
7233;SDS011;3658;47.992;10.158;2023-04-25T13:40:48;1.40;;;1.20;;
7233;SDS011;3658;47.992;10.158;2023-04-25T13:43:17;3.17;;;1.20;;
7233;SDS011;3658;47.992;10.158;2023-04-25T13:45:44;1.77;;;1.20;;
7233;SDS011;3658;47.992;10.158;2023-04-25T13:48:12;1.07;;;1.00;;
7233;SDS011;3658;47.992;10.158;2023-04-25T13:50:39;1.40;;;1.30;;
7233;SDS011;3658;47.992;10.158;2023-04-25T13:53:06;1.60;;;1.20;;
7233;SDS011;3658;47.992;10.158;2023-04-25T13:55:33;1.87;;;1.30;;
7233;SDS011;3658;47.992;10.158;2023-04-25T13:58:03;2.27;;;1.33;;
7233;SDS011;3658;47.992;10.158;2023-04-25T14:00:33;4.37;;;1.03;;
7233;SDS011;3658;47.992;10.158;2023-04-25T14:03:03;0.93;;;0.93;;
7233;SDS011;3658;47.992;10.158;2023-04-25T14:05:32;1.13;;;0.90;;
7233;SDS011;3658;47.992;10.158;2023-04-25T14:08:03;6.23;;;1.00;;
7233;SDS011;3658;47.992;10.158;2023-04-25T14:10:31;2.10;;;1.00;;
7233;SDS011;3658;47.992;10.158;2023-04-25T14:12:58;5.57;;;1.37;;
7233;SDS011;3658;47.992;10.158;2023-04-25T14:15:27;2.80;;;1.20;;
7233;SDS011;3658;47.992;10.158;2023-04-25T14:17:54;1.00;;;0.90;;
7233;SDS011;3658;47.992;10.158;2023-04-25T14:20:21;1.23;;;0.97;;
7233;SDS011;3658;47.992;10.158;2023-04-25T14:22:49;4.50;;;1.37;;
7233;SDS011;3658;47.992;10.158;2023-04-25T14:25:17;2.97;;;1.13;;
7233;SDS011;3658;47.992;10.158;2023-04-25T14:27:44;2.93;;;1.10;;
7233;SDS011;3658;47.992;10.158;2023-04-25T14:30:14;1.10;;;0.87;;
7233;SDS011;3658;47.992;10.158;2023-04-25T14:32:43;2.83;;;1.00;;
7233;SDS011;3658;47.992;10.158;2023-04-25T14:35:10;1.10;;;1.00;;
7233;SDS011;3658;47.992;10.158;2023-04-25T14:37:37;1.93;;;1.10;;
7233;SDS011;3658;47.992;10.158;2023-04-25T14:40:05;5.27;;;1.07;;
7233;SDS011;3658;47.992;10.158;2023-04-25T14:42:33;1.43;;;1.10;;
7233;SDS011;3658;47.992;10.158;2023-04-25T14:45:01;7.53;;;3.10;;
7233;SDS011;3658;47.992;10.158;2023-04-25T14:47:28;7.83;;;1.90;;
7233;SDS011;3658;47.992;10.158;2023-04-25T14:49:58;5.00;;;1.73;;
7233;SDS011;3658;47.992;10.158;2023-04-25T14:52:26;7.80;;;2.17;;
7233;SDS011;3658;47.992;10.158;2023-04-25T14:54:53;5.27;;;1.80;;
7233;SDS011;3658;47.992;10.158;2023-04-25T14:57:20;3.30;;;1.80;;
7233;SDS011;3658;47.992;10.158;2023-04-25T14:59:47;6.93;;;1.70;;
7233;SDS011;3658;47.992;10.158;2023-04-25T15:02:14;2.50;;;1.37;;
7233;SDS011;3658;47.992;10.158;2023-04-25T15:04:41;7.70;;;1.30;;
7233;SDS011;3658;47.992;10.158;2023-04-25T15:07:10;2.57;;;1.67;;
7233;SDS011;3658;47.992;10.158;2023-04-25T15:09:37;4.93;;;1.43;;
7233;SDS011;3658;47.992;10.158;2023-04-25T15:12:04;8.63;;;1.53;;